Terminal Aerodrome Forecast
Issued by NWS Charleston, WV

Home | Current Version | Previous Version | Text Only | Print | Product List | Glossary On
Versions: 1 2 3 4 5 6 7 8 9 10 11 12 13 14 15 16 17 18 19 20 21 22
000
FTUS41 KRLX 261700
TAFEKN
TAF
KEKN 261739Z 2618/2718 23014G25KT P6SM BKN035
     FM262000 27013G28KT 5SM RA BR VCTS BKN025CB
     FM262200 29010G22KT 3SM RA BR BKN010
     FM270000 31004KT 4SM -RA BR OVC015
     FM270400 31004KT 4SM -RA BR OVC010
     FM270800 31004KT P6SM OVC010=

USA.gov is the U.S. government's official web portal to all federal, state and local government web resources and services.